createdAt,value
2017-10-02T00:02:13.648Z,12.50
2017-10-02T00:04:39.714Z,14.43
2017-10-02T00:07:05.773Z,19.10
2017-10-02T00:09:31.821Z,16.93
2017-10-02T00:11:57.869Z,18.27
2017-10-02T00:14:23.942Z,20.13
2017-10-02T00:16:50.006Z,13.30
2017-10-02T00:19:16.049Z,13.70
2017-10-02T00:21:42.857Z,14.10
2017-10-02T00:24:09.677Z,14.03
2017-10-02T00:26:35.734Z,11.40
2017-10-02T00:29:01.801Z,12.83
2017-10-02T00:31:28.614Z,14.47
2017-10-02T00:33:54.710Z,11.60
2017-10-02T00:36:20.790Z,13.33
2017-10-02T00:38:46.873Z,11.10
2017-10-02T00:41:12.962Z,14.97
2017-10-02T00:43:39.022Z,18.33
2017-10-02T00:46:05.086Z,12.67
2017-10-02T00:48:31.905Z,13.10
2017-10-02T00:50:58.011Z,13.73
2017-10-02T00:53:24.207Z,16.63
2017-10-02T00:55:50.301Z,13.10
2017-10-02T00:58:16.366Z,18.47
2017-10-02T01:00:43.154Z,21.10
2017-10-02T01:03:09.253Z,15.50
2017-10-02T01:05:35.345Z,9.53
2017-10-02T01:08:01.405Z,9.77
2017-10-02T01:10:27.508Z,14.40
2017-10-02T01:12:53.576Z,8.70
2017-10-02T01:15:19.657Z,9.80
2017-10-02T01:17:45.717Z,14.00
2017-10-02T01:20:11.786Z,14.13
2017-10-02T01:22:37.869Z,11.60
2017-10-02T01:25:03.949Z,12.57
2017-10-02T01:27:30.032Z,9.90
2017-10-02T01:29:56.081Z,11.87
2017-10-02T01:32:22.142Z,16.23
2017-10-02T01:34:48.205Z,12.33
2017-10-02T01:37:15.090Z,10.93
2017-10-02T01:39:41.165Z,21.20
2017-10-02T01:42:07.969Z,9.53
2017-10-02T01:44:34.033Z,10.87
2017-10-02T01:47:00.098Z,12.03
2017-10-02T01:49:26.167Z,19.53
2017-10-02T01:51:52.229Z,9.77
2017-10-02T01:54:18.287Z,12.77
2017-10-02T01:56:44.337Z,8.90
2017-10-02T01:59:10.401Z,15.43
2017-10-02T02:01:36.479Z,16.43
2017-10-02T02:04:02.568Z,9.90
2017-10-02T02:06:29.389Z,10.80
2017-10-02T02:08:55.442Z,11.50
2017-10-02T02:11:21.530Z,10.70
2017-10-02T02:13:48.324Z,7.67
2017-10-02T02:16:14.373Z,14.73
2017-10-02T02:18:41.179Z,19.13
2017-10-02T02:21:07.980Z,13.00
2017-10-02T02:23:34.048Z,11.33
2017-10-02T02:26:00.072Z,11.47
2017-10-02T02:28:26.125Z,18.97
2017-10-02T02:30:52.160Z,7.60
2017-10-02T02:33:18.945Z,13.93
2017-10-02T02:35:45.199Z,17.93
2017-10-02T02:38:11.269Z,15.60
2017-10-02T02:43:34.054Z,13.33
2017-10-02T02:46:00.113Z,9.80
2017-10-02T02:48:26.181Z,16.13
2017-10-02T02:50:52.220Z,14.47
2017-10-02T02:53:18.262Z,16.53
2017-10-02T02:55:44.325Z,10.27
2017-10-02T02:58:10.385Z,10.87
2017-10-02T03:00:37.176Z,10.60
2017-10-02T03:03:03.265Z,19.70
2017-10-02T03:05:29.324Z,17.03
2017-10-02T03:07:55.409Z,12.03
2017-10-02T03:10:21.477Z,15.43
2017-10-02T03:12:47.548Z,13.00
2017-10-02T03:15:14.369Z,14.50
2017-10-02T03:17:40.433Z,10.10
2017-10-02T03:20:06.512Z,16.47
2017-10-02T03:22:32.602Z,10.13
2017-10-02T03:24:58.685Z,13.33
2017-10-02T03:27:24.749Z,10.90
2017-10-02T03:29:50.790Z,20.13
2017-10-02T03:32:16.845Z,10.40
2017-10-02T03:34:42.902Z,14.23
2017-10-02T03:37:08.997Z,12.33
2017-10-02T03:39:35.062Z,9.17
2017-10-02T03:42:01.158Z,11.83
2017-10-02T03:44:27.227Z,8.07
2017-10-02T03:46:53.299Z,12.63
2017-10-02T03:49:19.353Z,7.90
2017-10-02T03:51:45.431Z,17.73
2017-10-02T03:54:12.210Z,10.90
2017-10-02T03:56:38.273Z,13.67
2017-10-02T03:59:04.341Z,13.83
2017-10-02T04:01:30.417Z,19.83
2017-10-02T04:03:56.542Z,21.63
2017-10-02T04:06:22.621Z,14.50
2017-10-02T04:08:48.688Z,12.50
2017-10-02T04:11:14.754Z,14.17
2017-10-02T04:13:40.842Z,18.53
2017-10-02T04:16:06.904Z,22.37
2017-10-02T04:18:32.985Z,12.00
2017-10-02T04:20:59.034Z,12.83
2017-10-02T04:23:25.094Z,8.90
2017-10-02T04:25:51.152Z,18.70
2017-10-02T04:28:17.200Z,18.80
2017-10-02T04:30:43.283Z,15.17
2017-10-02T04:33:09.326Z,9.53
2017-10-02T04:35:35.431Z,12.37
2017-10-02T04:38:01.513Z,14.00
2017-10-02T04:40:27.640Z,20.23
2017-10-02T04:42:53.720Z,12.47
2017-10-02T04:45:19.772Z,14.87
2017-10-02T04:47:45.869Z,17.00
2017-10-02T04:50:12.685Z,18.07
2017-10-02T04:52:38.756Z,15.73
2017-10-02T04:55:04.843Z,17.37
2017-10-02T04:57:30.949Z,26.47
2017-10-02T04:59:57.029Z,18.70
2017-10-02T05:02:23.844Z,10.57
2017-10-02T05:04:50.674Z,13.07
2017-10-02T05:07:17.485Z,18.43
2017-10-02T05:09:44.317Z,19.90
2017-10-02T05:12:10.362Z,13.17
2017-10-02T05:14:36.422Z,20.93
2017-10-02T05:17:02.499Z,18.23
2017-10-02T05:19:28.658Z,21.93
2017-10-02T05:21:54.905Z,16.00
2017-10-02T05:24:20.985Z,17.27
2017-10-02T05:26:47.040Z,18.13
2017-10-02T05:29:13.120Z,16.30
2017-10-02T05:31:39.911Z,10.97
2017-10-02T05:34:05.989Z,26.87
2017-10-02T05:36:32.080Z,12.17
2017-10-02T05:38:58.174Z,18.13
2017-10-02T05:41:24.977Z,11.83
2017-10-02T05:43:51.025Z,12.50
2017-10-02T05:46:17.111Z,16.80
2017-10-02T05:48:43.921Z,21.57
2017-10-02T05:51:10.740Z,15.83
2017-10-02T05:53:36.796Z,22.10
2017-10-02T05:56:02.862Z,23.13
2017-10-02T05:58:28.957Z,19.67
2017-10-02T06:00:54.998Z,18.80
2017-10-02T06:03:21.808Z,21.30
2017-10-02T06:05:47.850Z,17.30
2017-10-02T06:08:13.912Z,13.83
2017-10-02T06:10:39.979Z,15.93
2017-10-02T06:13:06.030Z,19.50
2017-10-02T06:15:32.104Z,22.80
2017-10-02T06:17:58.177Z,18.33
2017-10-02T06:20:25.015Z,9.70
2017-10-02T06:22:51.833Z,20.37
2017-10-02T06:25:17.894Z,16.53
2017-10-02T06:27:43.938Z,18.30
2017-10-02T06:30:09.977Z,14.07
2017-10-02T06:32:36.778Z,20.80
2017-10-02T06:35:02.849Z,16.50
2017-10-02T06:37:28.912Z,9.63
2017-10-02T06:39:55.020Z,14.80
2017-10-02T06:42:21.892Z,13.57
2017-10-02T06:47:20.986Z,18.90
2017-10-02T06:49:47.093Z,13.83
2017-10-02T06:52:13.194Z,8.70
2017-10-02T06:54:39.264Z,10.27
2017-10-02T06:57:06.133Z,5.40
2017-10-02T06:59:32.193Z,14.17
2017-10-02T07:01:58.246Z,12.33
2017-10-02T07:04:25.359Z,12.03
2017-10-02T07:06:51.484Z,8.47
2017-10-02T07:09:17.574Z,10.63
2017-10-02T07:11:43.693Z,7.80
2017-10-02T07:14:09.774Z,9.77
2017-10-02T07:16:36.612Z,11.17
2017-10-02T07:19:03.497Z,13.10
2017-10-02T07:21:29.586Z,10.83
2017-10-02T07:23:55.645Z,7.67
2017-10-02T07:26:22.490Z,6.83
2017-10-02T07:28:49.307Z,5.60
2017-10-02T07:31:15.381Z,9.93
2017-10-02T07:33:41.514Z,5.93
2017-10-02T07:36:07.605Z,10.20
2017-10-02T07:38:33.675Z,8.53
2017-10-02T07:40:59.729Z,8.60
2017-10-02T07:43:25.797Z,8.57
2017-10-02T07:45:51.841Z,9.50
2017-10-02T07:48:17.939Z,14.33
2017-10-02T07:50:44.037Z,9.03
2017-10-02T07:53:10.088Z,10.00
2017-10-02T07:55:36.177Z,7.57
2017-10-02T07:58:02.244Z,12.27
2017-10-02T08:00:28.305Z,11.00
2017-10-02T08:02:54.402Z,10.80
2017-10-02T08:05:20.466Z,8.00
2017-10-02T08:07:46.521Z,12.60
2017-10-02T08:10:12.596Z,9.23
2017-10-02T08:12:38.665Z,7.43
2017-10-02T08:15:04.773Z,9.23
2017-10-02T08:17:30.847Z,9.67
2017-10-02T08:19:56.917Z,13.77
2017-10-02T08:22:23.017Z,12.83
2017-10-02T08:24:49.144Z,4.77
2017-10-02T08:27:15.230Z,8.83
2017-10-02T08:29:42.052Z,7.80
2017-10-02T08:32:08.909Z,11.83
2017-10-02T08:34:35.010Z,11.90
2017-10-02T08:37:01.865Z,10.37
2017-10-02T08:39:27.917Z,8.00
2017-10-02T08:41:53.982Z,11.40
2017-10-02T08:44:20.042Z,8.23
2017-10-02T08:46:46.170Z,7.53
2017-10-02T08:49:12.213Z,9.67
2017-10-02T08:51:38.353Z,9.20
2017-10-02T08:54:04.438Z,8.00
2017-10-02T08:56:30.506Z,6.83
2017-10-02T08:58:57.306Z,9.73
2017-10-02T09:01:23.391Z,10.53
2017-10-02T09:03:49.474Z,9.10
2017-10-02T09:06:15.626Z,6.17
2017-10-02T09:08:42.542Z,9.13
2017-10-02T09:11:08.609Z,8.50
2017-10-02T09:13:35.435Z,9.00
2017-10-02T09:16:01.484Z,14.53
2017-10-02T09:18:27.586Z,10.50
2017-10-02T09:20:53.642Z,8.27
2017-10-02T09:23:19.682Z,9.17
2017-10-02T09:25:47.546Z,13.23
2017-10-02T09:28:13.710Z,16.93
2017-10-02T09:30:39.802Z,12.77
2017-10-02T09:33:05.850Z,7.83
2017-10-02T09:35:32.656Z,11.27
2017-10-02T09:37:58.756Z,9.87
2017-10-02T09:40:24.809Z,14.73
2017-10-02T09:42:51.651Z,10.10
2017-10-02T09:45:17.697Z,9.50
2017-10-02T09:47:43.797Z,16.97
2017-10-02T09:50:09.842Z,8.03
2017-10-02T09:52:36.198Z,12.00
2017-10-02T09:55:02.277Z,8.50
2017-10-02T09:57:29.085Z,29.33
2017-10-02T09:59:55.919Z,11.60
2017-10-02T10:02:22.745Z,15.70
2017-10-02T10:04:48.845Z,15.33
2017-10-02T10:07:14.897Z,10.53
2017-10-02T10:09:41.037Z,16.40
2017-10-02T10:12:07.111Z,20.20
2017-10-02T10:14:33.247Z,15.77
2017-10-02T10:16:59.310Z,16.50
2017-10-02T10:19:25.395Z,15.57
2017-10-02T10:21:51.473Z,10.57
2017-10-02T10:24:17.578Z,15.90
2017-10-02T10:26:44.319Z,9.67
2017-10-02T10:29:10.398Z,16.90
2017-10-02T10:31:36.525Z,15.10
2017-10-02T10:34:02.647Z,14.53
2017-10-02T10:36:28.716Z,17.03
2017-10-02T10:38:55.548Z,16.80
2017-10-02T10:41:21.633Z,19.90
2017-10-02T10:43:47.728Z,11.73
2017-10-02T10:46:13.796Z,21.40
2017-10-02T10:48:39.864Z,15.77
2017-10-02T10:51:05.934Z,15.80
2017-10-02T10:53:32.030Z,18.20
2017-10-02T10:56:01.975Z,18.73
2017-10-02T10:58:28.077Z,22.07
2017-10-02T11:00:54.146Z,23.03
2017-10-02T11:03:20.235Z,15.53
2017-10-02T11:05:46.326Z,14.73
2017-10-02T11:08:13.133Z,12.57
2017-10-02T11:10:39.213Z,19.33
2017-10-02T11:13:05.281Z,16.13
2017-10-02T11:15:31.351Z,14.03
2017-10-02T11:17:57.416Z,17.57
2017-10-02T11:20:24.224Z,24.90
2017-10-02T11:22:50.278Z,18.27
2017-10-02T11:25:16.374Z,23.93
2017-10-02T11:27:42.474Z,22.37
2017-10-02T11:30:08.553Z,17.10
2017-10-02T11:32:34.637Z,24.63
2017-10-02T11:35:00.769Z,20.57
2017-10-02T11:37:26.864Z,26.67
2017-10-02T11:39:53.893Z,32.13
2017-10-02T11:42:19.965Z,27.63
2017-10-02T11:44:46.052Z,19.57
2017-10-02T11:47:12.179Z,36.23
2017-10-02T11:49:38.261Z,36.37
2017-10-02T11:52:04.351Z,42.37
2017-10-02T11:54:30.453Z,38.23
2017-10-02T11:56:56.538Z,37.50
2017-10-02T11:59:22.609Z,34.17
2017-10-02T12:01:49.440Z,39.87
2017-10-02T12:04:16.244Z,18.77
2017-10-02T12:06:44.781Z,38.33
2017-10-02T12:09:10.889Z,34.63
2017-10-02T12:11:37.730Z,28.93
2017-10-02T12:14:03.952Z,45.63
2017-10-02T12:16:30.027Z,33.37
2017-10-02T12:18:56.084Z,30.73
2017-10-02T12:21:22.134Z,40.20
2017-10-02T12:23:48.213Z,30.43
2017-10-02T12:26:14.285Z,34.17
2017-10-02T12:28:40.366Z,29.43
2017-10-02T12:31:06.490Z,37.33
2017-10-02T12:33:32.603Z,33.17
2017-10-02T12:35:58.703Z,30.87
2017-10-02T12:38:26.562Z,35.80
2017-10-02T12:40:54.403Z,30.47
2017-10-02T12:43:23.576Z,27.03
2017-10-02T12:45:51.434Z,30.33
2017-10-02T12:48:19.317Z,22.00
2017-10-02T12:50:48.105Z,27.27
2017-10-02T12:53:16.008Z,32.10
2017-10-02T12:55:43.863Z,26.60
2017-10-02T12:58:11.756Z,26.87
2017-10-02T13:00:39.722Z,21.60
2017-10-02T13:03:07.560Z,39.17
2017-10-02T13:05:35.425Z,26.37
2017-10-02T13:08:03.287Z,31.07
2017-10-02T13:10:31.136Z,23.10
2017-10-02T13:12:59.026Z,29.67
2017-10-02T13:15:26.881Z,32.50
2017-10-02T13:17:54.730Z,29.17
2017-10-02T13:20:22.594Z,29.07
2017-10-02T13:22:50.436Z,34.77
2017-10-02T13:25:18.301Z,34.03
2017-10-02T13:27:46.128Z,44.60
2017-10-02T13:30:16.132Z,28.60
2017-10-02T13:32:43.963Z,45.60
2017-10-02T13:35:11.802Z,42.93
2017-10-02T13:37:39.624Z,35.30
2017-10-02T13:40:07.445Z,28.67
2017-10-02T13:42:35.270Z,39.83
2017-10-02T13:45:03.714Z,29.73
2017-10-02T13:47:31.548Z,39.10
2017-10-02T13:49:59.368Z,35.73
2017-10-02T13:52:27.201Z,34.60
2017-10-02T13:54:55.042Z,30.43
2017-10-02T13:57:22.857Z,27.77
2017-10-02T13:59:50.720Z,36.07
2017-10-02T14:02:18.621Z,43.17
2017-10-02T14:04:46.473Z,33.07
2017-10-02T14:07:14.321Z,35.90
2017-10-02T14:09:42.145Z,32.60
2017-10-02T14:12:10.001Z,25.53
2017-10-02T14:14:37.845Z,33.77
2017-10-02T14:17:05.993Z,34.73
2017-10-02T14:19:33.854Z,35.97
2017-10-02T14:22:01.703Z,36.40
2017-10-02T14:24:29.566Z,34.17
2017-10-02T14:26:57.432Z,33.13
2017-10-02T14:29:25.293Z,36.17
2017-10-02T14:31:53.104Z,52.67
2017-10-02T14:34:20.925Z,42.27
2017-10-02T14:36:48.754Z,42.20
2017-10-02T14:39:16.569Z,46.67
2017-10-02T14:41:44.420Z,34.37
2017-10-02T14:44:12.337Z,55.73
2017-10-02T14:46:40.217Z,41.37
2017-10-02T14:49:08.068Z,40.07
2017-10-02T14:51:35.881Z,35.40
2017-10-02T14:54:03.742Z,35.47
2017-10-02T14:56:31.604Z,44.10
2017-10-02T14:58:59.423Z,46.83
2017-10-02T15:01:27.263Z,35.93
2017-10-02T15:03:55.138Z,37.33
2017-10-02T15:06:22.968Z,38.20
2017-10-02T15:08:50.787Z,33.37
2017-10-02T15:11:18.631Z,43.20
2017-10-02T15:13:46.464Z,40.10
2017-10-02T15:16:14.296Z,42.00
2017-10-02T15:18:42.124Z,27.60
2017-10-02T15:21:09.980Z,52.20
2017-10-02T15:23:37.806Z,26.33
2017-10-02T15:26:05.655Z,37.00
2017-10-02T15:28:33.656Z,50.27
2017-10-02T15:31:01.493Z,41.53
2017-10-02T15:33:29.362Z,35.00
2017-10-02T15:35:57.193Z,38.40
2017-10-02T15:38:24.999Z,38.70
2017-10-02T15:40:52.805Z,31.70
2017-10-02T15:43:20.778Z,38.57
2017-10-02T15:45:48.592Z,45.53
2017-10-02T15:48:16.428Z,52.83
2017-10-02T15:50:44.240Z,33.37
2017-10-02T15:53:12.041Z,33.33
2017-10-02T15:55:39.876Z,33.37
2017-10-02T15:58:07.701Z,32.13
2017-10-02T16:00:35.832Z,49.43
2017-10-02T16:03:03.681Z,29.17
2017-10-02T16:05:31.513Z,39.70
2017-10-02T16:08:01.329Z,62.97
2017-10-02T16:10:29.181Z,44.70
2017-10-02T16:12:56.988Z,38.07
2017-10-02T16:15:24.817Z,35.23
2017-10-02T16:17:52.652Z,40.43
2017-10-02T16:20:20.468Z,32.97
2017-10-02T16:22:48.293Z,38.37
2017-10-02T16:25:16.127Z,46.83
2017-10-02T16:27:43.948Z,41.83
2017-10-02T16:30:11.768Z,34.53
2017-10-02T16:32:39.581Z,37.70
2017-10-02T16:35:08.248Z,35.53
2017-10-02T16:37:36.078Z,40.63
2017-10-02T16:40:03.939Z,37.40
2017-10-02T16:42:31.760Z,39.23
2017-10-02T16:44:59.574Z,36.87
2017-10-02T16:47:27.416Z,33.00
2017-10-02T16:49:55.249Z,32.83
2017-10-02T16:52:23.071Z,20.00
2017-10-02T16:54:50.884Z,26.90
2017-10-02T16:57:18.696Z,35.80
2017-10-02T16:59:46.512Z,37.93
2017-10-02T17:02:14.465Z,37.67
2017-10-02T17:04:42.296Z,38.87
2017-10-02T17:07:10.113Z,23.63
2017-10-02T17:09:37.919Z,28.83
2017-10-02T17:12:05.748Z,34.43
2017-10-02T17:14:33.611Z,29.97
2017-10-02T17:17:01.430Z,31.03
2017-10-02T17:19:29.306Z,34.80
2017-10-02T17:21:57.128Z,38.73
2017-10-02T17:24:24.941Z,42.50
2017-10-02T17:26:52.750Z,38.27
2017-10-02T17:29:20.577Z,29.93
2017-10-02T17:31:48.413Z,32.30
2017-10-02T17:34:16.232Z,42.87
2017-10-02T17:36:44.048Z,40.37
2017-10-02T17:39:11.884Z,40.60
2017-10-02T17:41:39.700Z,39.07
2017-10-02T17:44:07.538Z,36.63
2017-10-02T17:46:35.363Z,28.07
2017-10-02T17:49:03.181Z,36.13
2017-10-02T17:51:31.157Z,37.73
2017-10-02T17:53:58.992Z,37.77
2017-10-02T17:56:26.812Z,26.43
2017-10-02T17:58:54.653Z,30.00
2017-10-02T18:01:22.542Z,35.33
2017-10-02T18:03:50.489Z,33.23
2017-10-02T18:06:18.305Z,39.93
2017-10-02T18:08:46.149Z,36.47
2017-10-02T18:11:13.974Z,20.60
2017-10-02T18:13:41.847Z,38.30
2017-10-02T18:16:09.715Z,36.70
2017-10-02T18:18:37.581Z,31.93
2017-10-02T18:21:05.417Z,53.80
2017-10-02T18:23:33.277Z,31.80
2017-10-02T18:26:01.234Z,27.70
2017-10-02T18:28:29.080Z,33.23
2017-10-02T18:30:56.942Z,30.77
2017-10-02T18:33:24.815Z,24.10
2017-10-02T18:35:52.668Z,35.23
2017-10-02T18:38:20.500Z,34.53
2017-10-02T18:40:48.362Z,40.77
2017-10-02T18:43:16.320Z,34.33
2017-10-02T18:45:44.161Z,21.43
2017-10-02T18:48:11.997Z,38.67
2017-10-02T18:50:39.814Z,31.33
2017-10-02T18:53:07.630Z,28.30
2017-10-02T18:55:35.557Z,23.53
2017-10-02T18:58:03.374Z,48.70
2017-10-02T19:00:31.225Z,35.67
2017-10-02T19:02:59.079Z,30.33
2017-10-02T19:05:27.980Z,28.83
2017-10-02T19:07:56.889Z,27.30
2017-10-02T19:10:24.696Z,22.03
2017-10-02T19:12:52.536Z,33.63
2017-10-02T19:15:20.414Z,31.33
2017-10-02T19:17:48.272Z,38.27
2017-10-02T19:20:16.115Z,19.33
2017-10-02T19:22:43.962Z,28.30
2017-10-02T19:25:11.788Z,36.47
2017-10-02T19:27:39.633Z,38.77
2017-10-02T19:30:07.473Z,32.43
2017-10-02T19:32:35.330Z,45.10
2017-10-02T19:35:03.194Z,35.23
2017-10-02T19:37:31.069Z,39.77
2017-10-02T19:39:59.028Z,33.13
2017-10-02T19:42:26.873Z,23.97
2017-10-02T19:44:54.725Z,30.67
2017-10-02T19:47:22.581Z,27.33
2017-10-02T19:49:50.424Z,25.40
2017-10-02T19:52:18.315Z,31.03
2017-10-02T19:54:46.145Z,29.97
2017-10-02T19:57:14.093Z,42.53
2017-10-02T19:59:41.897Z,33.60
2017-10-02T20:02:09.757Z,19.20
2017-10-02T20:04:37.625Z,22.80
2017-10-02T20:07:05.453Z,17.97
2017-10-02T20:09:33.360Z,29.83
2017-10-02T20:12:01.273Z,19.60
2017-10-02T20:14:29.148Z,27.03
2017-10-02T20:16:56.973Z,27.70
2017-10-02T20:19:24.812Z,27.53
2017-10-02T20:21:52.655Z,28.77
2017-10-02T20:24:20.473Z,18.87
2017-10-02T20:26:50.233Z,24.57
2017-10-02T20:29:18.117Z,26.30
2017-10-02T20:31:46.990Z,26.13
2017-10-02T20:34:14.809Z,24.70
2017-10-02T20:36:42.648Z,31.00
2017-10-02T20:39:10.713Z,25.57
2017-10-02T20:41:38.543Z,22.13
2017-10-02T20:44:06.417Z,17.63
2017-10-02T20:46:34.484Z,23.30
2017-10-02T20:49:02.337Z,19.37
2017-10-02T20:51:30.148Z,20.17
2017-10-02T20:53:57.980Z,13.50
2017-10-02T20:56:25.804Z,23.63
2017-10-02T20:58:53.634Z,33.50
2017-10-02T21:01:21.469Z,38.03
2017-10-02T21:03:49.325Z,28.83
2017-10-02T21:06:17.148Z,26.40
2017-10-02T21:08:44.956Z,32.20
2017-10-02T21:11:12.767Z,35.20
2017-10-02T21:13:40.597Z,26.00
2017-10-02T21:16:08.449Z,20.93
2017-10-02T21:18:36.265Z,20.33
2017-10-02T21:21:04.122Z,14.87
2017-10-02T21:23:32.037Z,24.20
2017-10-02T21:25:59.877Z,19.63
2017-10-02T21:28:27.719Z,32.63
2017-10-02T21:30:55.545Z,22.73
2017-10-02T21:33:23.406Z,35.93
2017-10-02T21:35:51.272Z,26.20
2017-10-02T21:38:19.094Z,24.07
2017-10-02T21:40:46.904Z,27.53
2017-10-02T21:43:14.745Z,17.73
2017-10-02T21:45:42.570Z,28.53
2017-10-02T21:48:10.421Z,26.50
2017-10-02T21:50:38.269Z,14.80
2017-10-02T21:53:06.079Z,14.20
2017-10-02T21:55:33.920Z,19.93
2017-10-02T21:58:01.761Z,23.77
2017-10-02T22:00:29.609Z,34.20
2017-10-02T22:02:57.474Z,30.53
2017-10-02T22:05:25.297Z,29.37
2017-10-02T22:07:53.128Z,24.20
2017-10-02T22:10:20.933Z,22.87
2017-10-02T22:12:48.769Z,17.40
2017-10-02T22:15:16.601Z,30.37
2017-10-02T22:17:44.607Z,27.50
2017-10-02T22:20:12.442Z,19.83
2017-10-02T22:22:40.504Z,37.17
2017-10-02T22:25:08.325Z,28.73
2017-10-02T22:27:36.249Z,27.90
2017-10-02T22:30:04.044Z,16.17
2017-10-02T22:32:31.848Z,32.70
2017-10-02T22:34:59.660Z,32.80
2017-10-02T22:37:27.489Z,20.20
2017-10-02T22:39:55.299Z,29.83
2017-10-02T22:42:23.085Z,26.43
2017-10-02T22:44:50.925Z,34.13
2017-10-02T22:47:18.766Z,29.10
2017-10-02T22:49:46.592Z,21.80
2017-10-02T22:52:14.421Z,22.50
2017-10-02T22:54:42.310Z,24.03
2017-10-02T22:57:10.140Z,25.23
2017-10-02T22:59:45.006Z,20.03
2017-10-02T23:02:12.947Z,32.40
2017-10-02T23:04:40.799Z,14.67
2017-10-02T23:07:08.624Z,23.07
2017-10-02T23:09:36.447Z,27.00
2017-10-02T23:12:04.260Z,27.53
2017-10-02T23:14:32.065Z,42.33
2017-10-02T23:16:59.861Z,21.63
2017-10-02T23:19:27.696Z,35.33
2017-10-02T23:21:55.514Z,33.13
2017-10-02T23:24:25.355Z,23.57
2017-10-02T23:26:53.193Z,29.53
2017-10-02T23:29:21.010Z,29.97
2017-10-02T23:31:48.826Z,27.80
2017-10-02T23:34:16.662Z,25.33
2017-10-02T23:36:44.488Z,27.27
2017-10-02T23:39:12.295Z,29.83
2017-10-02T23:41:40.112Z,31.07
2017-10-02T23:44:07.917Z,30.00
2017-10-02T23:46:35.752Z,13.70
2017-10-02T23:49:03.564Z,21.83
2017-10-02T23:51:31.380Z,17.53
2017-10-02T23:53:59.193Z,31.00
2017-10-02T23:56:27.041Z,23.07
2017-10-02T23:58:54.861Z,22.40
